sensor_id;sensor_type;location;lat;lon;timestamp;temperature;humidity
19805;DHT22;10062;51.052;13.756;2023-10-31T00:01:51;15.00;52.40
19805;DHT22;10062;51.052;13.756;2023-10-31T00:04:25;15.00;40.10
19805;DHT22;10062;51.052;13.756;2023-10-31T00:06:56;15.00;39.70
19805;DHT22;10062;51.052;13.756;2023-10-31T00:09:28;15.00;44.80
19805;DHT22;10062;51.052;13.756;2023-10-31T00:12:00;15.00;37.00
19805;DHT22;10062;51.052;13.756;2023-10-31T00:14:31;15.10;27.40
19805;DHT22;10062;51.052;13.756;2023-10-31T00:17:03;15.10;25.60
19805;DHT22;10062;51.052;13.756;2023-10-31T00:19:36;15.10;28.70
19805;DHT22;10062;51.052;13.756;2023-10-31T00:22:08;14.90;46.80
19805;DHT22;10062;51.052;13.756;2023-10-31T00:24:40;14.70;70.80
19805;DHT22;10062;51.052;13.756;2023-10-31T00:27:11;14.70;90.80
19805;DHT22;10062;51.052;13.756;2023-10-31T00:29:43;14.80;70.30
19805;DHT22;10062;51.052;13.756;2023-10-31T00:32:15;14.80;67.60
19805;DHT22;10062;51.052;13.756;2023-10-31T00:34:48;14.90;65.00
19805;DHT22;10062;51.052;13.756;2023-10-31T00:37:20;14.90;56.70
19805;DHT22;10062;51.052;13.756;2023-10-31T00:39:51;14.80;75.40
19805;DHT22;10062;51.052;13.756;2023-10-31T00:42:23;14.90;52.90
19805;DHT22;10062;51.052;13.756;2023-10-31T00:44:55;14.90;45.40
19805;DHT22;10062;51.052;13.756;2023-10-31T00:47:27;14.70;49.30
19805;DHT22;10062;51.052;13.756;2023-10-31T00:50:00;14.70;62.50
19805;DHT22;10062;51.052;13.756;2023-10-31T00:52:31;14.70;55.20
19805;DHT22;10062;51.052;13.756;2023-10-31T00:55:04;14.80;61.70
19805;DHT22;10062;51.052;13.756;2023-10-31T00:57:37;14.70;51.50
19805;DHT22;10062;51.052;13.756;2023-10-31T01:00:09;14.70;58.80
19805;DHT22;10062;51.052;13.756;2023-10-31T01:02:41;14.80;58.90
19805;DHT22;10062;51.052;13.756;2023-10-31T01:05:14;14.80;56.50
19805;DHT22;10062;51.052;13.756;2023-10-31T01:07:45;14.80;51.80
19805;DHT22;10062;51.052;13.756;2023-10-31T01:10:17;14.60;80.70
19805;DHT22;10062;51.052;13.756;2023-10-31T01:12:49;14.60;91.00
19805;DHT22;10062;51.052;13.756;2023-10-31T01:15:21;14.50;97.10
19805;DHT22;10062;51.052;13.756;2023-10-31T01:17:52;14.50;90.80
19805;DHT22;10062;51.052;13.756;2023-10-31T01:20:27;14.50;98.30
19805;DHT22;10062;51.052;13.756;2023-10-31T01:22:58;14.50;97.00
19805;DHT22;10062;51.052;13.756;2023-10-31T01:25:30;14.40;99.90
19805;DHT22;10062;51.052;13.756;2023-10-31T01:28:02;14.40;99.90
19805;DHT22;10062;51.052;13.756;2023-10-31T01:30:34;14.30;99.90
19805;DHT22;10062;51.052;13.756;2023-10-31T01:33:06;14.30;99.90
19805;DHT22;10062;51.052;13.756;2023-10-31T01:35:39;14.30;99.90
19805;DHT22;10062;51.052;13.756;2023-10-31T01:38:11;14.20;99.90
19805;DHT22;10062;51.052;13.756;2023-10-31T01:40:43;14.20;99.90
19805;DHT22;10062;51.052;13.756;2023-10-31T01:43:29;14.20;99.90
19805;DHT22;10062;51.052;13.756;2023-10-31T01:46:01;14.20;99.90
19805;DHT22;10062;51.052;13.756;2023-10-31T01:48:33;14.20;99.90
19805;DHT22;10062;51.052;13.756;2023-10-31T01:51:06;14.30;99.90
19805;DHT22;10062;51.052;13.756;2023-10-31T01:53:38;14.30;99.90
19805;DHT22;10062;51.052;13.756;2023-10-31T01:56:11;14.30;99.90
19805;DHT22;10062;51.052;13.756;2023-10-31T01:58:43;14.20;99.90
19805;DHT22;10062;51.052;13.756;2023-10-31T02:01:16;14.20;99.90
19805;DHT22;10062;51.052;13.756;2023-10-31T02:03:48;14.20;99.90
19805;DHT22;10062;51.052;13.756;2023-10-31T02:06:21;14.20;99.90
19805;DHT22;10062;51.052;13.756;2023-10-31T02:08:53;14.20;99.90
19805;DHT22;10062;51.052;13.756;2023-10-31T02:11:27;14.20;99.90
19805;DHT22;10062;51.052;13.756;2023-10-31T02:14:00;14.20;99.90
19805;DHT22;10062;51.052;13.756;2023-10-31T02:16:32;14.20;99.90
19805;DHT22;10062;51.052;13.756;2023-10-31T02:19:04;14.20;99.90
19805;DHT22;10062;51.052;13.756;2023-10-31T02:21:39;14.20;99.90
19805;DHT22;10062;51.052;13.756;2023-10-31T02:24:11;14.10;99.90
19805;DHT22;10062;51.052;13.756;2023-10-31T02:26:43;14.20;99.90
19805;DHT22;10062;51.052;13.756;2023-10-31T02:29:14;14.10;99.90
19805;DHT22;10062;51.052;13.756;2023-10-31T02:31:46;14.20;99.90
19805;DHT22;10062;51.052;13.756;2023-10-31T02:34:18;14.20;99.90
19805;DHT22;10062;51.052;13.756;2023-10-31T02:36:51;14.20;99.90
19805;DHT22;10062;51.052;13.756;2023-10-31T02:39:23;14.20;99.90
19805;DHT22;10062;51.052;13.756;2023-10-31T02:41:55;14.20;99.90
19805;DHT22;10062;51.052;13.756;2023-10-31T02:44:26;14.20;99.90
19805;DHT22;10062;51.052;13.756;2023-10-31T02:46:58;14.30;99.90
19805;DHT22;10062;51.052;13.756;2023-10-31T02:49:30;14.40;99.90
19805;DHT22;10062;51.052;13.756;2023-10-31T02:52:03;14.30;99.90
19805;DHT22;10062;51.052;13.756;2023-10-31T02:54:35;14.20;99.90
19805;DHT22;10062;51.052;13.756;2023-10-31T02:57:07;14.10;99.90
19805;DHT22;10062;51.052;13.756;2023-10-31T02:59:38;14.10;99.90
19805;DHT22;10062;51.052;13.756;2023-10-31T03:02:10;14.10;99.90
19805;DHT22;10062;51.052;13.756;2023-10-31T03:04:43;14.10;99.90
19805;DHT22;10062;51.052;13.756;2023-10-31T03:07:16;14.10;99.90
19805;DHT22;10062;51.052;13.756;2023-10-31T03:09:48;14.00;99.90
19805;DHT22;10062;51.052;13.756;2023-10-31T03:12:20;13.90;99.90
19805;DHT22;10062;51.052;13.756;2023-10-31T03:14:51;14.00;99.90
19805;DHT22;10062;51.052;13.756;2023-10-31T03:17:23;14.00;99.90
19805;DHT22;10062;51.052;13.756;2023-10-31T03:19:56;14.00;99.90
19805;DHT22;10062;51.052;13.756;2023-10-31T03:22:29;14.00;99.90
19805;DHT22;10062;51.052;13.756;2023-10-31T03:25:01;13.80;99.90
19805;DHT22;10062;51.052;13.756;2023-10-31T03:27:32;13.80;99.90
19805;DHT22;10062;51.052;13.756;2023-10-31T03:30:05;13.90;99.90
19805;DHT22;10062;51.052;13.756;2023-10-31T03:32:37;14.00;99.90
19805;DHT22;10062;51.052;13.756;2023-10-31T03:35:09;14.00;99.90
19805;DHT22;10062;51.052;13.756;2023-10-31T03:37:42;14.10;99.90
19805;DHT22;10062;51.052;13.756;2023-10-31T03:40:14;14.10;99.90
19805;DHT22;10062;51.052;13.756;2023-10-31T03:42:46;14.10;99.90
19805;DHT22;10062;51.052;13.756;2023-10-31T03:45:18;14.10;99.90
19805;DHT22;10062;51.052;13.756;2023-10-31T03:47:49;14.00;99.90
19805;DHT22;10062;51.052;13.756;2023-10-31T03:50:21;14.00;99.90
19805;DHT22;10062;51.052;13.756;2023-10-31T03:52:54;13.90;99.90
19805;DHT22;10062;51.052;13.756;2023-10-31T03:55:26;13.90;99.90
19805;DHT22;10062;51.052;13.756;2023-10-31T03:57:58;13.80;99.90
19805;DHT22;10062;51.052;13.756;2023-10-31T04:00:30;13.80;99.90
19805;DHT22;10062;51.052;13.756;2023-10-31T04:03:01;13.80;99.90
19805;DHT22;10062;51.052;13.756;2023-10-31T04:05:33;13.80;99.90
19805;DHT22;10062;51.052;13.756;2023-10-31T04:08:06;13.80;99.90
19805;DHT22;10062;51.052;13.756;2023-10-31T04:10:38;13.80;99.90
19805;DHT22;10062;51.052;13.756;2023-10-31T04:13:10;13.70;99.90
19805;DHT22;10062;51.052;13.756;2023-10-31T04:15:41;13.80;99.90
19805;DHT22;10062;51.052;13.756;2023-10-31T04:18:13;13.90;99.90
19805;DHT22;10062;51.052;13.756;2023-10-31T04:20:46;13.90;99.90
19805;DHT22;10062;51.052;13.756;2023-10-31T04:23:19;13.80;99.90
19805;DHT22;10062;51.052;13.756;2023-10-31T04:25:51;13.80;99.90
19805;DHT22;10062;51.052;13.756;2023-10-31T04:28:23;13.80;99.90
19805;DHT22;10062;51.052;13.756;2023-10-31T04:30:55;13.80;99.90
19805;DHT22;10062;51.052;13.756;2023-10-31T04:33:27;14.50;99.90
19805;DHT22;10062;51.052;13.756;2023-10-31T04:35:58;13.80;99.90
19805;DHT22;10062;51.052;13.756;2023-10-31T04:38:32;13.80;99.90
19805;DHT22;10062;51.052;13.756;2023-10-31T04:41:08;14.20;99.90
19805;DHT22;10062;51.052;13.756;2023-10-31T04:43:40;13.60;99.90
19805;DHT22;10062;51.052;13.756;2023-10-31T04:46:12;13.70;99.90
19805;DHT22;10062;51.052;13.756;2023-10-31T04:48:44;13.60;99.90
19805;DHT22;10062;51.052;13.756;2023-10-31T04:51:16;13.50;99.90
19805;DHT22;10062;51.052;13.756;2023-10-31T04:53:49;13.50;99.90
19805;DHT22;10062;51.052;13.756;2023-10-31T04:56:21;13.50;99.90
19805;DHT22;10062;51.052;13.756;2023-10-31T04:58:52;13.60;99.90
19805;DHT22;10062;51.052;13.756;2023-10-31T05:01:24;13.60;99.90
19805;DHT22;10062;51.052;13.756;2023-10-31T05:03:56;13.60;99.90
19805;DHT22;10062;51.052;13.756;2023-10-31T05:06:28;13.60;99.90
19805;DHT22;10062;51.052;13.756;2023-10-31T05:09:01;13.60;99.90
19805;DHT22;10062;51.052;13.756;2023-10-31T05:11:33;13.60;99.90
19805;DHT22;10062;51.052;13.756;2023-10-31T05:14:06;13.60;99.90
19805;DHT22;10062;51.052;13.756;2023-10-31T05:16:42;13.60;99.90
19805;DHT22;10062;51.052;13.756;2023-10-31T05:19:14;13.60;99.90
19805;DHT22;10062;51.052;13.756;2023-10-31T05:21:46;13.60;99.90
19805;DHT22;10062;51.052;13.756;2023-10-31T05:24:19;13.60;99.90
19805;DHT22;10062;51.052;13.756;2023-10-31T05:26:50;13.50;99.90
19805;DHT22;10062;51.052;13.756;2023-10-31T05:29:22;13.50;99.90
19805;DHT22;10062;51.052;13.756;2023-10-31T05:31:54;13.60;99.90
19805;DHT22;10062;51.052;13.756;2023-10-31T05:34:26;13.60;99.90
19805;DHT22;10062;51.052;13.756;2023-10-31T05:36:57;13.50;99.90
19805;DHT22;10062;51.052;13.756;2023-10-31T05:39:30;13.50;99.90
19805;DHT22;10062;51.052;13.756;2023-10-31T05:42:02;13.50;94.60
19805;DHT22;10062;51.052;13.756;2023-10-31T05:44:34;13.50;91.30
19805;DHT22;10062;51.052;13.756;2023-10-31T05:47:06;13.40;66.90
19805;DHT22;10062;51.052;13.756;2023-10-31T05:49:37;13.40;76.70
19805;DHT22;10062;51.052;13.756;2023-10-31T05:52:09;13.40;92.00
19805;DHT22;10062;51.052;13.756;2023-10-31T05:54:42;13.40;99.90
19805;DHT22;10062;51.052;13.756;2023-10-31T05:57:14;13.40;99.90
19805;DHT22;10062;51.052;13.756;2023-10-31T05:59:46;13.40;94.50
19805;DHT22;10062;51.052;13.756;2023-10-31T06:02:18;13.40;82.50
19805;DHT22;10062;51.052;13.756;2023-10-31T06:04:49;13.40;77.20
19805;DHT22;10062;51.052;13.756;2023-10-31T06:07:21;13.50;54.20
19805;DHT22;10062;51.052;13.756;2023-10-31T06:09:54;13.40;58.30
19805;DHT22;10062;51.052;13.756;2023-10-31T06:12:26;13.50;43.60
19805;DHT22;10062;51.052;13.756;2023-10-31T06:14:58;13.50;47.20
19805;DHT22;10062;51.052;13.756;2023-10-31T06:17:30;13.50;48.50
19805;DHT22;10062;51.052;13.756;2023-10-31T06:20:04;13.50;40.20
19805;DHT22;10062;51.052;13.756;2023-10-31T06:22:38;13.60;22.60
19805;DHT22;10062;51.052;13.756;2023-10-31T06:25:11;13.50;28.60
19805;DHT22;10062;51.052;13.756;2023-10-31T06:27:43;13.50;15.80
19805;DHT22;10062;51.052;13.756;2023-10-31T06:30:15;13.60;1.00
19805;DHT22;10062;51.052;13.756;2023-10-31T06:32:47;13.60;1.00
19805;DHT22;10062;51.052;13.756;2023-10-31T06:35:18;13.70;1.00
19805;DHT22;10062;51.052;13.756;2023-10-31T06:37:51;13.70;1.00
19805;DHT22;10062;51.052;13.756;2023-10-31T06:40:25;13.60;1.00
19805;DHT22;10062;51.052;13.756;2023-10-31T06:42:57;13.60;1.00
19805;DHT22;10062;51.052;13.756;2023-10-31T06:45:29;13.60;1.00
19805;DHT22;10062;51.052;13.756;2023-10-31T06:48:01;13.60;1.00
19805;DHT22;10062;51.052;13.756;2023-10-31T06:50:33;13.60;1.00
19805;DHT22;10062;51.052;13.756;2023-10-31T06:53:05;13.60;1.00
19805;DHT22;10062;51.052;13.756;2023-10-31T06:55:38;13.60;1.00
19805;DHT22;10062;51.052;13.756;2023-10-31T06:58:10;13.60;1.00
19805;DHT22;10062;51.052;13.756;2023-10-31T07:00:42;13.70;1.00
19805;DHT22;10062;51.052;13.756;2023-10-31T07:03:14;13.80;1.00
19805;DHT22;10062;51.052;13.756;2023-10-31T07:05:46;13.70;1.00
19805;DHT22;10062;51.052;13.756;2023-10-31T07:08:18;13.60;1.00
19805;DHT22;10062;51.052;13.756;2023-10-31T07:10:51;13.60;1.00
19805;DHT22;10062;51.052;13.756;2023-10-31T07:13:23;13.60;1.00
19805;DHT22;10062;51.052;13.756;2023-10-31T07:15:54;13.60;1.00
19805;DHT22;10062;51.052;13.756;2023-10-31T07:18:26;13.60;1.00
19805;DHT22;10062;51.052;13.756;2023-10-31T07:20:58;13.60;1.00
19805;DHT22;10062;51.052;13.756;2023-10-31T07:23:30;13.70;1.00
19805;DHT22;10062;51.052;13.756;2023-10-31T07:26:04;13.60;1.00
19805;DHT22;10062;51.052;13.756;2023-10-31T07:28:36;13.60;1.00
19805;DHT22;10062;51.052;13.756;2023-10-31T07:31:07;13.60;1.00
19805;DHT22;10062;51.052;13.756;2023-10-31T07:33:39;13.60;1.00
19805;DHT22;10062;51.052;13.756;2023-10-31T07:36:11;13.60;1.00
19805;DHT22;10062;51.052;13.756;2023-10-31T07:38:43;13.60;1.00
19805;DHT22;10062;51.052;13.756;2023-10-31T07:41:16;13.60;1.00
19805;DHT22;10062;51.052;13.756;2023-10-31T07:43:48;13.60;1.00
19805;DHT22;10062;51.052;13.756;2023-10-31T07:46:20;13.60;1.00
19805;DHT22;10062;51.052;13.756;2023-10-31T07:48:52;13.60;1.00
19805;DHT22;10062;51.052;13.756;2023-10-31T07:51:23;13.60;1.00
19805;DHT22;10062;51.052;13.756;2023-10-31T07:53:55;13.70;1.00
19805;DHT22;10062;51.052;13.756;2023-10-31T07:56:29;13.80;1.00
19805;DHT22;10062;51.052;13.756;2023-10-31T07:59:03;13.70;1.00
19805;DHT22;10062;51.052;13.756;2023-10-31T08:01:35;13.70;1.00
19805;DHT22;10062;51.052;13.756;2023-10-31T08:04:07;13.80;1.00
19805;DHT22;10062;51.052;13.756;2023-10-31T08:06:38;13.80;1.00
19805;DHT22;10062;51.052;13.756;2023-10-31T08:09:10;13.80;1.00
19805;DHT22;10062;51.052;13.756;2023-10-31T08:11:43;13.80;1.00
19805;DHT22;10062;51.052;13.756;2023-10-31T08:14:15;13.90;1.00
19805;DHT22;10062;51.052;13.756;2023-10-31T08:16:47;13.80;1.00
19805;DHT22;10062;51.052;13.756;2023-10-31T08:19:18;13.80;99.90
19805;DHT22;10062;51.052;13.756;2023-10-31T08:21:50;13.80;1.00
19805;DHT22;10062;51.052;13.756;2023-10-31T08:24:22;13.80;99.90
19805;DHT22;10062;51.052;13.756;2023-10-31T08:26:55;13.90;1.00
19805;DHT22;10062;51.052;13.756;2023-10-31T08:29:27;13.80;99.90
19805;DHT22;10062;51.052;13.756;2023-10-31T08:31:59;13.90;1.00
19805;DHT22;10062;51.052;13.756;2023-10-31T08:34:31;14.00;1.00
19805;DHT22;10062;51.052;13.756;2023-10-31T08:37:03;14.10;1.00
19805;DHT22;10062;51.052;13.756;2023-10-31T08:39:34;14.10;1.00
19805;DHT22;10062;51.052;13.756;2023-10-31T08:42:07;14.20;1.00
19805;DHT22;10062;51.052;13.756;2023-10-31T08:44:40;14.20;1.00
19805;DHT22;10062;51.052;13.756;2023-10-31T08:47:12;14.30;1.00
19805;DHT22;10062;51.052;13.756;2023-10-31T08:49:45;14.30;1.00
19805;DHT22;10062;51.052;13.756;2023-10-31T08:52:16;14.40;1.00
19805;DHT22;10062;51.052;13.756;2023-10-31T08:54:49;14.50;99.90
19805;DHT22;10062;51.052;13.756;2023-10-31T08:57:22;14.80;99.90
19805;DHT22;10062;51.052;13.756;2023-10-31T08:59:54;14.60;99.90
19805;DHT22;10062;51.052;13.756;2023-10-31T09:02:26;14.80;1.00
19805;DHT22;10062;51.052;13.756;2023-10-31T09:04:57;14.80;1.00
19805;DHT22;10062;51.052;13.756;2023-10-31T09:07:29;14.80;1.00
19805;DHT22;10062;51.052;13.756;2023-10-31T09:10:01;14.70;99.90
19805;DHT22;10062;51.052;13.756;2023-10-31T09:12:35;14.80;99.90
19805;DHT22;10062;51.052;13.756;2023-10-31T09:15:07;14.90;1.00
19805;DHT22;10062;51.052;13.756;2023-10-31T09:17:40;14.90;99.80
19805;DHT22;10062;51.052;13.756;2023-10-31T09:20:12;14.90;1.00
19805;DHT22;10062;51.052;13.756;2023-10-31T09:22:43;15.00;99.90
19805;DHT22;10062;51.052;13.756;2023-10-31T09:25:15;15.10;68.40
19805;DHT22;10062;51.052;13.756;2023-10-31T09:27:48;15.30;1.00
19805;DHT22;10062;51.052;13.756;2023-10-31T09:30:20;15.30;1.00
19805;DHT22;10062;51.052;13.756;2023-10-31T09:32:54;15.30;1.00
19805;DHT22;10062;51.052;13.756;2023-10-31T09:35:26;15.30;1.00
19805;DHT22;10062;51.052;13.756;2023-10-31T09:37:58;15.20;99.90
19805;DHT22;10062;51.052;13.756;2023-10-31T09:40:30;15.00;1.00
19805;DHT22;10062;51.052;13.756;2023-10-31T09:43:03;15.00;99.90
19805;DHT22;10062;51.052;13.756;2023-10-31T09:45:35;14.90;1.00
19805;DHT22;10062;51.052;13.756;2023-10-31T09:48:06;14.80;1.00
19805;DHT22;10062;51.052;13.756;2023-10-31T09:50:38;14.80;1.00
19805;DHT22;10062;51.052;13.756;2023-10-31T09:53:10;14.70;1.00
19805;DHT22;10062;51.052;13.756;2023-10-31T09:55:42;14.90;1.00
19805;DHT22;10062;51.052;13.756;2023-10-31T09:58:16;15.00;99.90
19805;DHT22;10062;51.052;13.756;2023-10-31T10:00:47;14.90;1.00
19805;DHT22;10062;51.052;13.756;2023-10-31T10:03:19;14.80;1.00
19805;DHT22;10062;51.052;13.756;2023-10-31T10:05:51;15.30;1.00
19805;DHT22;10062;51.052;13.756;2023-10-31T10:08:23;15.00;99.90
19805;DHT22;10062;51.052;13.756;2023-10-31T10:10:55;15.00;1.00
19805;DHT22;10062;51.052;13.756;2023-10-31T10:13:28;15.00;99.90
19805;DHT22;10062;51.052;13.756;2023-10-31T10:16:00;15.10;1.00
19805;DHT22;10062;51.052;13.756;2023-10-31T10:18:33;15.20;1.00
19805;DHT22;10062;51.052;13.756;2023-10-31T10:21:07;15.30;1.00
19805;DHT22;10062;51.052;13.756;2023-10-31T10:23:39;15.20;1.00
19805;DHT22;10062;51.052;13.756;2023-10-31T10:26:11;15.10;1.00
19805;DHT22;10062;51.052;13.756;2023-10-31T10:28:47;15.10;1.00
19805;DHT22;10062;51.052;13.756;2023-10-31T10:31:20;15.20;92.90
19805;DHT22;10062;51.052;13.756;2023-10-31T10:33:51;15.40;1.00
19805;DHT22;10062;51.052;13.756;2023-10-31T10:36:25;15.30;99.90
19805;DHT22;10062;51.052;13.756;2023-10-31T10:38:57;15.30;99.90
19805;DHT22;10062;51.052;13.756;2023-10-31T10:41:29;15.10;1.00
19805;DHT22;10062;51.052;13.756;2023-10-31T10:44:06;15.20;99.90
19805;DHT22;10062;51.052;13.756;2023-10-31T10:46:39;15.10;1.00
19805;DHT22;10062;51.052;13.756;2023-10-31T10:49:12;15.10;1.00
19805;DHT22;10062;51.052;13.756;2023-10-31T10:51:52;15.10;1.00
19805;DHT22;10062;51.052;13.756;2023-10-31T10:54:31;15.00;99.90
19805;DHT22;10062;51.052;13.756;2023-10-31T10:57:12;15.10;99.90
19805;DHT22;10062;51.052;13.756;2023-10-31T10:59:48;15.00;99.90
19805;DHT22;10062;51.052;13.756;2023-10-31T11:02:22;15.00;1.00
19805;DHT22;10062;51.052;13.756;2023-10-31T11:04:54;15.10;97.10
19805;DHT22;10062;51.052;13.756;2023-10-31T11:07:27;15.10;1.00
19805;DHT22;10062;51.052;13.756;2023-10-31T11:10:00;14.80;1.00
19805;DHT22;10062;51.052;13.756;2023-10-31T11:12:33;15.00;1.00
19805;DHT22;10062;51.052;13.756;2023-10-31T11:15:09;14.90;1.00
19805;DHT22;10062;51.052;13.756;2023-10-31T11:17:43;14.80;74.30
19805;DHT22;10062;51.052;13.756;2023-10-31T11:20:16;14.70;1.00
19805;DHT22;10062;51.052;13.756;2023-10-31T11:22:55;14.80;1.00
19805;DHT22;10062;51.052;13.756;2023-10-31T11:25:32;14.80;1.00
19805;DHT22;10062;51.052;13.756;2023-10-31T11:28:12;14.90;99.90
19805;DHT22;10062;51.052;13.756;2023-10-31T11:30:48;15.00;1.00
19805;DHT22;10062;51.052;13.756;2023-10-31T11:33:22;15.10;1.00
19805;DHT22;10062;51.052;13.756;2023-10-31T11:36:00;15.30;1.00
19805;DHT22;10062;51.052;13.756;2023-10-31T11:38:34;15.40;1.00
19805;DHT22;10062;51.052;13.756;2023-10-31T11:41:06;15.30;1.00
19805;DHT22;10062;51.052;13.756;2023-10-31T11:43:54;15.20;1.00
19805;DHT22;10062;51.052;13.756;2023-10-31T11:46:28;15.30;1.00
19805;DHT22;10062;51.052;13.756;2023-10-31T11:49:00;15.30;1.00
19805;DHT22;10062;51.052;13.756;2023-10-31T11:51:32;15.30;1.00
19805;DHT22;10062;51.052;13.756;2023-10-31T11:54:05;15.30;1.00
19805;DHT22;10062;51.052;13.756;2023-10-31T11:56:39;15.30;1.00
19805;DHT22;10062;51.052;13.756;2023-10-31T11:59:11;15.20;1.00
19805;DHT22;10062;51.052;13.756;2023-10-31T12:01:46;15.10;1.00
19805;DHT22;10062;51.052;13.756;2023-10-31T12:04:22;15.10;1.00
19805;DHT22;10062;51.052;13.756;2023-10-31T12:06:58;14.90;1.00
19805;DHT22;10062;51.052;13.756;2023-10-31T12:09:30;14.90;99.90
19805;DHT22;10062;51.052;13.756;2023-10-31T12:12:02;14.90;1.00
19805;DHT22;10062;51.052;13.756;2023-10-31T12:14:34;14.80;24.10
19805;DHT22;10062;51.052;13.756;2023-10-31T12:17:07;15.10;1.00
19805;DHT22;10062;51.052;13.756;2023-10-31T12:19:40;14.70;99.90
19805;DHT22;10062;51.052;13.756;2023-10-31T12:22:13;14.70;1.00
19805;DHT22;10062;51.052;13.756;2023-10-31T12:24:45;14.80;1.00
19805;DHT22;10062;51.052;13.756;2023-10-31T12:27:16;14.60;99.90
19805;DHT22;10062;51.052;13.756;2023-10-31T12:30:00;14.70;99.90
19805;DHT22;10062;51.052;13.756;2023-10-31T12:32:33;14.60;1.00
19805;DHT22;10062;51.052;13.756;2023-10-31T12:35:05;14.50;1.00
19805;DHT22;10062;51.052;13.756;2023-10-31T12:37:37;14.50;1.00
19805;DHT22;10062;51.052;13.756;2023-10-31T12:40:10;14.50;1.00
19805;DHT22;10062;51.052;13.756;2023-10-31T12:42:42;14.50;99.90
19805;DHT22;10062;51.052;13.756;2023-10-31T12:45:15;14.50;1.00
19805;DHT22;10062;51.052;13.756;2023-10-31T12:48:02;14.50;99.90
19805;DHT22;10062;51.052;13.756;2023-10-31T12:50:35;14.50;99.90
19805;DHT22;10062;51.052;13.756;2023-10-31T12:53:08;14.50;1.00
19805;DHT22;10062;51.052;13.756;2023-10-31T12:55:41;14.60;1.00
19805;DHT22;10062;51.052;13.756;2023-10-31T12:58:20;14.40;1.00
19805;DHT22;10062;51.052;13.756;2023-10-31T13:00:52;14.40;1.00
19805;DHT22;10062;51.052;13.756;2023-10-31T13:03:26;14.40;99.90
19805;DHT22;10062;51.052;13.756;2023-10-31T13:05:58;14.30;41.30
19805;DHT22;10062;51.052;13.756;2023-10-31T13:08:34;14.30;1.00
19805;DHT22;10062;51.052;13.756;2023-10-31T13:11:07;14.30;1.00
19805;DHT22;10062;51.052;13.756;2023-10-31T13:13:40;14.30;1.00
19805;DHT22;10062;51.052;13.756;2023-10-31T13:16:11;14.20;1.00
19805;DHT22;10062;51.052;13.756;2023-10-31T13:18:44;14.30;1.00
19805;DHT22;10062;51.052;13.756;2023-10-31T13:21:16;14.20;93.50
19805;DHT22;10062;51.052;13.756;2023-10-31T13:23:48;14.20;1.00
19805;DHT22;10062;51.052;13.756;2023-10-31T13:26:20;14.20;1.00
19805;DHT22;10062;51.052;13.756;2023-10-31T13:28:51;14.20;1.00
19805;DHT22;10062;51.052;13.756;2023-10-31T13:31:23;14.20;1.00
19805;DHT22;10062;51.052;13.756;2023-10-31T13:33:56;14.10;77.80
19805;DHT22;10062;51.052;13.756;2023-10-31T13:36:28;14.10;1.00
19805;DHT22;10062;51.052;13.756;2023-10-31T13:39:00;14.10;1.00
19805;DHT22;10062;51.052;13.756;2023-10-31T13:41:31;14.10;1.00
19805;DHT22;10062;51.052;13.756;2023-10-31T13:44:04;14.10;99.90
19805;DHT22;10062;51.052;13.756;2023-10-31T13:46:36;14.00;99.90
19805;DHT22;10062;51.052;13.756;2023-10-31T13:49:09;14.00;1.00
19805;DHT22;10062;51.052;13.756;2023-10-31T13:51:43;13.90;1.00
19805;DHT22;10062;51.052;13.756;2023-10-31T13:54:15;13.90;99.90
19805;DHT22;10062;51.052;13.756;2023-10-31T13:56:46;13.80;1.00
19805;DHT22;10062;51.052;13.756;2023-10-31T13:59:18;13.70;1.00
19805;DHT22;10062;51.052;13.756;2023-10-31T14:01:50;13.70;1.00
19805;DHT22;10062;51.052;13.756;2023-10-31T14:04:23;13.60;1.00
19805;DHT22;10062;51.052;13.756;2023-10-31T14:06:55;13.50;99.90
19805;DHT22;10062;51.052;13.756;2023-10-31T14:09:27;13.50;1.00
19805;DHT22;10062;51.052;13.756;2023-10-31T14:12:00;13.50;1.00
19805;DHT22;10062;51.052;13.756;2023-10-31T14:14:33;13.40;1.00
19805;DHT22;10062;51.052;13.756;2023-10-31T14:17:05;13.40;99.90
19805;DHT22;10062;51.052;13.756;2023-10-31T14:19:38;13.50;99.90
19805;DHT22;10062;51.052;13.756;2023-10-31T14:22:12;13.50;36.60
19805;DHT22;10062;51.052;13.756;2023-10-31T14:24:44;13.60;99.90
19805;DHT22;10062;51.052;13.756;2023-10-31T14:27:17;13.60;1.00
19805;DHT22;10062;51.052;13.756;2023-10-31T14:29:50;13.60;99.90
19805;DHT22;10062;51.052;13.756;2023-10-31T14:32:23;13.60;1.00
19805;DHT22;10062;51.052;13.756;2023-10-31T14:34:56;13.70;99.90
19805;DHT22;10062;51.052;13.756;2023-10-31T14:37:27;13.70;1.00
19805;DHT22;10062;51.052;13.756;2023-10-31T14:39:59;13.70;1.00
19805;DHT22;10062;51.052;13.756;2023-10-31T14:42:31;13.70;17.30
19805;DHT22;10062;51.052;13.756;2023-10-31T14:45:03;13.70;99.90
19805;DHT22;10062;51.052;13.756;2023-10-31T14:47:35;13.70;1.00
19805;DHT22;10062;51.052;13.756;2023-10-31T14:50:09;13.70;1.00
19805;DHT22;10062;51.052;13.756;2023-10-31T14:52:41;13.70;99.90
19805;DHT22;10062;51.052;13.756;2023-10-31T14:55:13;13.80;1.00
19805;DHT22;10062;51.052;13.756;2023-10-31T14:57:45;13.80;99.90
19805;DHT22;10062;51.052;13.756;2023-10-31T15:00:17;13.70;99.90
19805;DHT22;10062;51.052;13.756;2023-10-31T15:02:49;13.70;99.90
19805;DHT22;10062;51.052;13.756;2023-10-31T15:05:22;13.70;1.00
19805;DHT22;10062;51.052;13.756;2023-10-31T15:07:54;13.60;1.00
19805;DHT22;10062;51.052;13.756;2023-10-31T15:10:26;13.60;1.00
19805;DHT22;10062;51.052;13.756;2023-10-31T15:12:59;13.60;1.00
19805;DHT22;10062;51.052;13.756;2023-10-31T15:15:31;13.60;1.00
19805;DHT22;10062;51.052;13.756;2023-10-31T15:18:03;13.50;1.00
19805;DHT22;10062;51.052;13.756;2023-10-31T15:20:36;13.60;1.00
19805;DHT22;10062;51.052;13.756;2023-10-31T15:23:07;13.60;1.00
19805;DHT22;10062;51.052;13.756;2023-10-31T15:25:39;13.50;1.00
19805;DHT22;10062;51.052;13.756;2023-10-31T15:28:11;13.60;99.90
19805;DHT22;10062;51.052;13.756;2023-10-31T15:30:43;13.50;1.00
19805;DHT22;10062;51.052;13.756;2023-10-31T15:33:14;13.40;1.00
19805;DHT22;10062;51.052;13.756;2023-10-31T15:35:48;13.40;1.00
19805;DHT22;10062;51.052;13.756;2023-10-31T15:38:20;13.60;10.50
19805;DHT22;10062;51.052;13.756;2023-10-31T15:40:52;13.50;99.90
19805;DHT22;10062;51.052;13.756;2023-10-31T15:43:24;13.40;1.00
19805;DHT22;10062;51.052;13.756;2023-10-31T15:45:55;13.40;99.90
19805;DHT22;10062;51.052;13.756;2023-10-31T15:48:27;13.40;99.90
19805;DHT22;10062;51.052;13.756;2023-10-31T15:51:00;13.30;1.00
19805;DHT22;10062;51.052;13.756;2023-10-31T15:53:32;13.40;99.90
19805;DHT22;10062;51.052;13.756;2023-10-31T15:56:05;13.30;99.90